Aeroporto :
LOGIN :

Iscrizione | Disclaimer

   EN    FR    IT 

 










Sommario :    VFR   VFR Marginale   IFR   IFR Intensivo   IFR Molto Intensivo
Visibilità : 
Base nubi : 
>= 8 km
>= 3000ft
5 / 8 km
1000 / 3000 ft
1500m / 5 km
500 / 1000 ft
800 / 1500m
200 / 500 ft
< 800m
< 200 ft
Simboli :   Temporali  Nebbia  Neve Forte  Precipitazioni Forti  Vento > 20 kt
SIGMETs :   Varie  Temporali  Ghiacco  Turbolenza  Onda orograficha  Ceneri Vulcaniche






- Altitudine del aeroporto : 53 ft
- Codice IATA : HAM


EDDH - Hamburg

ULTIMO METAR :
  • 181920Z AUTO VRB02KT 8000 -RA FEW006 16/15 Q1012 TEMPO RA BKN006

METARs OBSOLETI :
  • 181850Z AUTO 35004KT 320V030 9999 -RA FEW011 16/16 Q1012 TEMPO RA BKN009
  • 181820Z AUTO 35004KT 320V040 9999 -RA FEW008 SCT020 16/15 Q1012 TEMPO 4000 RA BKN008
  • 181750Z AUTO 36003KT 330V030 9999 -RA NSC 17/16 Q1013 TEMPO 4000 RA BKN007
  • 181720Z AUTO 36003KT 9999 -RA NSC 17/16 Q1013 TEMPO 4000 RA BKN007
  • 181650Z AUTO VRB02KT 9999 -RA NSC 17/15 Q1013 REUP TEMPO 01005KT 4000 RA
  • 181620Z AUTO VRB02KT 9999 -RA NSC 17/15 Q1013 TEMPO 01005KT 4000 RA
  • 181550Z AUTO 03003KT 350V050 9999 -RA NSC 17/16 Q1013 TEMPO 4000 RA
  • 181520Z AUTO 36003KT 320V030 9999 -RA NSC 17/16 Q1013 TEMPO 4000 RA
  • 181450Z AUTO 34004KT 310V010 9999 -RA NSC 18/15 Q1014 TEMPO 4000 RA

TAF TAF EDDH
Valido dal 18 a 18 ore il 20 a 00 ore UTC


181700Z 1818/1924 01004KT 9999 SCT035
TEMPO 1818/1821 RA
PROB40
TEMPO 1818/1821 4000 BKN007
PROB40
TEMPO 1821/1905 3500 -RADZ BR BKN006
BECMG 1907/1909 31010KT
PROB40
TEMPO 1912/1917 30015G25KT
BECMG 1919/1921 29004KT



MetMap, La meteo Aeronautica in un colpo d'occhio ! - Copyright ORBIFLY Dicembre 2007 - Disclaimer

ORBIFLY MET'MAP TEAM :

Programmazione e sviluppo : Alexandra Zaïnal
Concezione : Baudouin d'Aumeries
Supporto tecnico e logistico : Manuel Goepfert
Aiuto : Marc-Olivier Méhu
Aiuto per la traduzione : Arnaldo La Scala




FONTI E CREDITI :

   NOAA